sensor_id;sensor_type;location;lat;lon;timestamp;temperature;humidity
10538;DHT22;5317;49.048;8.468;2023-04-24T00:02:17;16.90;68.00
10538;DHT22;5317;49.048;8.468;2023-04-24T00:04:44;16.80;67.90
10538;DHT22;5317;49.048;8.468;2023-04-24T00:07:11;16.90;67.90
10538;DHT22;5317;49.048;8.468;2023-04-24T00:09:39;16.90;67.70
10538;DHT22;5317;49.048;8.468;2023-04-24T00:12:06;16.90;67.70
10538;DHT22;5317;49.048;8.468;2023-04-24T00:14:33;16.90;67.60
10538;DHT22;5317;49.048;8.468;2023-04-24T00:17:01;16.90;67.60
10538;DHT22;5317;49.048;8.468;2023-04-24T00:19:28;16.90;67.50
10538;DHT22;5317;49.048;8.468;2023-04-24T00:21:55;16.90;67.50
10538;DHT22;5317;49.048;8.468;2023-04-24T00:24:21;16.90;67.50
10538;DHT22;5317;49.048;8.468;2023-04-24T00:26:49;16.90;67.60
10538;DHT22;5317;49.048;8.468;2023-04-24T00:29:16;16.90;67.50
10538;DHT22;5317;49.048;8.468;2023-04-24T00:31:43;16.90;67.40
10538;DHT22;5317;49.048;8.468;2023-04-24T00:34:10;16.80;68.20
10538;DHT22;5317;49.048;8.468;2023-04-24T00:36:38;16.90;67.50
10538;DHT22;5317;49.048;8.468;2023-04-24T00:39:04;16.80;67.30
10538;DHT22;5317;49.048;8.468;2023-04-24T00:41:34;16.90;67.50
10538;DHT22;5317;49.048;8.468;2023-04-24T00:44:03;16.90;67.60
10538;DHT22;5317;49.048;8.468;2023-04-24T00:46:30;16.80;67.40
10538;DHT22;5317;49.048;8.468;2023-04-24T00:48:59;16.80;67.60
10538;DHT22;5317;49.048;8.468;2023-04-24T00:51:26;16.80;68.20
10538;DHT22;5317;49.048;8.468;2023-04-24T00:53:53;16.80;67.40
10538;DHT22;5317;49.048;8.468;2023-04-24T00:56:20;16.80;67.40
10538;DHT22;5317;49.048;8.468;2023-04-24T00:58:47;16.80;67.60
10538;DHT22;5317;49.048;8.468;2023-04-24T01:01:15;16.80;67.60
10538;DHT22;5317;49.048;8.468;2023-04-24T01:03:42;16.80;67.40
10538;DHT22;5317;49.048;8.468;2023-04-24T01:06:10;16.70;68.40
10538;DHT22;5317;49.048;8.468;2023-04-24T01:08:37;16.60;67.40
10538;DHT22;5317;49.048;8.468;2023-04-24T01:11:05;16.70;67.70
10538;DHT22;5317;49.048;8.468;2023-04-24T01:13:32;16.80;67.70
10538;DHT22;5317;49.048;8.468;2023-04-24T01:15:59;16.80;67.60
10538;DHT22;5317;49.048;8.468;2023-04-24T01:18:28;16.80;67.70
10538;DHT22;5317;49.048;8.468;2023-04-24T01:20:58;16.80;67.60
10538;DHT22;5317;49.048;8.468;2023-04-24T01:23:26;16.70;67.50
10538;DHT22;5317;49.048;8.468;2023-04-24T01:25:53;16.70;67.60
10538;DHT22;5317;49.048;8.468;2023-04-24T01:28:20;16.80;67.70
10538;DHT22;5317;49.048;8.468;2023-04-24T01:30:47;16.80;67.70
10538;DHT22;5317;49.048;8.468;2023-04-24T01:33:14;16.80;67.60
10538;DHT22;5317;49.048;8.468;2023-04-24T01:35:42;16.70;67.80
10538;DHT22;5317;49.048;8.468;2023-04-24T01:38:09;16.70;67.90
10538;DHT22;5317;49.048;8.468;2023-04-24T01:40:37;16.70;68.00
10538;DHT22;5317;49.048;8.468;2023-04-24T01:43:04;16.70;68.10
10538;DHT22;5317;49.048;8.468;2023-04-24T01:45:31;16.70;68.10
10538;DHT22;5317;49.048;8.468;2023-04-24T01:47:58;16.60;68.30
10538;DHT22;5317;49.048;8.468;2023-04-24T01:50:26;16.60;68.70
10538;DHT22;5317;49.048;8.468;2023-04-24T01:52:53;16.50;69.00
10538;DHT22;5317;49.048;8.468;2023-04-24T01:55:21;16.50;69.60
10538;DHT22;5317;49.048;8.468;2023-04-24T01:57:49;16.60;70.00
10538;DHT22;5317;49.048;8.468;2023-04-24T02:00:16;16.50;70.20
10538;DHT22;5317;49.048;8.468;2023-04-24T02:02:44;16.40;70.40
10538;DHT22;5317;49.048;8.468;2023-04-24T02:05:11;16.40;70.60
10538;DHT22;5317;49.048;8.468;2023-04-24T02:07:38;16.50;70.60
10538;DHT22;5317;49.048;8.468;2023-04-24T02:10:06;16.50;70.60
10538;DHT22;5317;49.048;8.468;2023-04-24T02:12:33;16.50;70.50
10538;DHT22;5317;49.048;8.468;2023-04-24T02:15:01;16.60;70.60
10538;DHT22;5317;49.048;8.468;2023-04-24T02:17:28;16.60;70.60
10538;DHT22;5317;49.048;8.468;2023-04-24T02:19:56;16.50;70.70
10538;DHT22;5317;49.048;8.468;2023-04-24T02:22:23;16.40;70.60
10538;DHT22;5317;49.048;8.468;2023-04-24T02:24:49;16.40;71.00
10538;DHT22;5317;49.048;8.468;2023-04-24T02:27:16;16.40;71.10
10538;DHT22;5317;49.048;8.468;2023-04-24T02:29:43;16.40;71.20
10538;DHT22;5317;49.048;8.468;2023-04-24T02:32:11;16.50;71.10
10538;DHT22;5317;49.048;8.468;2023-04-24T02:34:40;16.50;71.20
10538;DHT22;5317;49.048;8.468;2023-04-24T02:37:07;16.50;71.10
10538;DHT22;5317;49.048;8.468;2023-04-24T02:39:35;16.50;71.30
10538;DHT22;5317;49.048;8.468;2023-04-24T02:42:02;16.50;71.30
10538;DHT22;5317;49.048;8.468;2023-04-24T02:44:28;16.60;71.40
10538;DHT22;5317;49.048;8.468;2023-04-24T02:46:55;16.60;72.00
10538;DHT22;5317;49.048;8.468;2023-04-24T02:49:23;16.60;71.60
10538;DHT22;5317;49.048;8.468;2023-04-24T02:51:51;16.60;71.70
10538;DHT22;5317;49.048;8.468;2023-04-24T02:54:18;16.60;71.70
10538;DHT22;5317;49.048;8.468;2023-04-24T02:56:45;16.60;71.80
10538;DHT22;5317;49.048;8.468;2023-04-24T02:59:12;16.40;71.90
10538;DHT22;5317;49.048;8.468;2023-04-24T03:01:38;16.30;72.30
10538;DHT22;5317;49.048;8.468;2023-04-24T03:04:05;16.40;73.30
10538;DHT22;5317;49.048;8.468;2023-04-24T03:06:33;16.30;74.10
10538;DHT22;5317;49.048;8.468;2023-04-24T03:09:01;16.20;75.70
10538;DHT22;5317;49.048;8.468;2023-04-24T03:11:28;16.20;76.30
10538;DHT22;5317;49.048;8.468;2023-04-24T03:13:55;15.90;76.30
10538;DHT22;5317;49.048;8.468;2023-04-24T03:16:22;15.80;77.20
10538;DHT22;5317;49.048;8.468;2023-04-24T03:18:49;15.80;77.50
10538;DHT22;5317;49.048;8.468;2023-04-24T03:21:16;15.80;77.80
10538;DHT22;5317;49.048;8.468;2023-04-24T03:23:44;15.70;78.00
10538;DHT22;5317;49.048;8.468;2023-04-24T03:26:11;15.50;78.80
10538;DHT22;5317;49.048;8.468;2023-04-24T03:28:38;15.40;78.80
10538;DHT22;5317;49.048;8.468;2023-04-24T03:31:05;15.30;78.70
10538;DHT22;5317;49.048;8.468;2023-04-24T03:33:31;15.40;79.20
10538;DHT22;5317;49.048;8.468;2023-04-24T03:35:58;15.30;78.00
10538;DHT22;5317;49.048;8.468;2023-04-24T03:38:25;15.30;77.00
10538;DHT22;5317;49.048;8.468;2023-04-24T03:40:53;15.40;76.90
10538;DHT22;5317;49.048;8.468;2023-04-24T03:43:20;15.50;75.70
10538;DHT22;5317;49.048;8.468;2023-04-24T03:45:47;15.40;76.40
10538;DHT22;5317;49.048;8.468;2023-04-24T03:48:14;15.30;75.60
10538;DHT22;5317;49.048;8.468;2023-04-24T03:50:41;15.30;75.90
10538;DHT22;5317;49.048;8.468;2023-04-24T03:53:07;15.30;76.30
10538;DHT22;5317;49.048;8.468;2023-04-24T03:55:34;15.40;76.60
10538;DHT22;5317;49.048;8.468;2023-04-24T03:58:02;15.50;76.60
10538;DHT22;5317;49.048;8.468;2023-04-24T04:00:29;15.60;77.10
10538;DHT22;5317;49.048;8.468;2023-04-24T04:02:58;15.60;77.20
10538;DHT22;5317;49.048;8.468;2023-04-24T04:05:25;15.50;77.00
10538;DHT22;5317;49.048;8.468;2023-04-24T04:07:52;15.50;76.60
10538;DHT22;5317;49.048;8.468;2023-04-24T04:10:19;15.40;77.40
10538;DHT22;5317;49.048;8.468;2023-04-24T04:12:46;15.30;76.10
10538;DHT22;5317;49.048;8.468;2023-04-24T04:15:14;15.40;75.90
10538;DHT22;5317;49.048;8.468;2023-04-24T04:17:41;15.40;75.90
10538;DHT22;5317;49.048;8.468;2023-04-24T04:20:08;15.40;75.60
10538;DHT22;5317;49.048;8.468;2023-04-24T04:22:36;15.40;74.80
10538;DHT22;5317;49.048;8.468;2023-04-24T04:25:03;15.30;74.90
10538;DHT22;5317;49.048;8.468;2023-04-24T04:27:31;15.40;75.20
10538;DHT22;5317;49.048;8.468;2023-04-24T04:29:58;15.50;74.90
10538;DHT22;5317;49.048;8.468;2023-04-24T04:32:28;15.50;74.50
10538;DHT22;5317;49.048;8.468;2023-04-24T04:34:55;15.40;73.70
10538;DHT22;5317;49.048;8.468;2023-04-24T04:37:22;15.30;73.70
10538;DHT22;5317;49.048;8.468;2023-04-24T04:39:49;15.40;73.90
10538;DHT22;5317;49.048;8.468;2023-04-24T04:42:16;15.40;74.70
10538;DHT22;5317;49.048;8.468;2023-04-24T04:44:44;15.40;73.60
10538;DHT22;5317;49.048;8.468;2023-04-24T04:47:11;15.50;73.80
10538;DHT22;5317;49.048;8.468;2023-04-24T04:49:40;15.30;73.90
10538;DHT22;5317;49.048;8.468;2023-04-24T04:52:07;15.30;74.10
10538;DHT22;5317;49.048;8.468;2023-04-24T04:54:33;15.20;74.10
10538;DHT22;5317;49.048;8.468;2023-04-24T04:57:00;15.00;73.60
10538;DHT22;5317;49.048;8.468;2023-04-24T04:59:27;14.90;73.20
10538;DHT22;5317;49.048;8.468;2023-04-24T05:01:54;15.00;73.50
10538;DHT22;5317;49.048;8.468;2023-04-24T05:04:21;15.00;72.90
10538;DHT22;5317;49.048;8.468;2023-04-24T05:06:49;15.00;72.90
10538;DHT22;5317;49.048;8.468;2023-04-24T05:09:17;14.90;72.50
10538;DHT22;5317;49.048;8.468;2023-04-24T05:11:44;14.80;72.70
10538;DHT22;5317;49.048;8.468;2023-04-24T05:14:11;14.80;73.00
10538;DHT22;5317;49.048;8.468;2023-04-24T05:16:39;14.90;72.90
10538;DHT22;5317;49.048;8.468;2023-04-24T05:19:06;15.00;72.50
10538;DHT22;5317;49.048;8.468;2023-04-24T05:21:32;15.10;72.60
10538;DHT22;5317;49.048;8.468;2023-04-24T05:24:01;15.00;71.90
10538;DHT22;5317;49.048;8.468;2023-04-24T05:26:27;14.90;72.20
10538;DHT22;5317;49.048;8.468;2023-04-24T05:28:54;14.90;72.50
10538;DHT22;5317;49.048;8.468;2023-04-24T05:31:21;15.00;72.30
10538;DHT22;5317;49.048;8.468;2023-04-24T05:33:48;14.90;72.50
10538;DHT22;5317;49.048;8.468;2023-04-24T05:36:15;14.90;72.50
10538;DHT22;5317;49.048;8.468;2023-04-24T05:38:42;14.90;72.50
10538;DHT22;5317;49.048;8.468;2023-04-24T05:41:10;14.80;72.40
10538;DHT22;5317;49.048;8.468;2023-04-24T05:43:37;14.70;72.30
10538;DHT22;5317;49.048;8.468;2023-04-24T05:46:04;14.80;72.90
10538;DHT22;5317;49.048;8.468;2023-04-24T05:48:30;14.80;72.60
10538;DHT22;5317;49.048;8.468;2023-04-24T05:50:57;14.70;73.00
10538;DHT22;5317;49.048;8.468;2023-04-24T05:53:24;14.60;72.70
10538;DHT22;5317;49.048;8.468;2023-04-24T05:55:51;14.70;73.50
10538;DHT22;5317;49.048;8.468;2023-04-24T05:58:19;14.90;73.50
10538;DHT22;5317;49.048;8.468;2023-04-24T06:00:46;15.00;73.10
10538;DHT22;5317;49.048;8.468;2023-04-24T06:03:14;14.90;72.50
10538;DHT22;5317;49.048;8.468;2023-04-24T06:05:41;14.80;72.70
10538;DHT22;5317;49.048;8.468;2023-04-24T06:08:08;14.80;72.60
10538;DHT22;5317;49.048;8.468;2023-04-24T06:10:36;14.70;71.90
10538;DHT22;5317;49.048;8.468;2023-04-24T06:13:03;14.80;71.30
10538;DHT22;5317;49.048;8.468;2023-04-24T06:15:31;14.70;70.30
10538;DHT22;5317;49.048;8.468;2023-04-24T06:17:58;14.70;70.50
10538;DHT22;5317;49.048;8.468;2023-04-24T06:20:25;14.80;70.70
10538;DHT22;5317;49.048;8.468;2023-04-24T06:22:52;14.80;70.00
10538;DHT22;5317;49.048;8.468;2023-04-24T06:25:19;14.90;69.90
10538;DHT22;5317;49.048;8.468;2023-04-24T06:27:46;15.00;69.90
10538;DHT22;5317;49.048;8.468;2023-04-24T06:30:13;15.00;69.50
10538;DHT22;5317;49.048;8.468;2023-04-24T06:32:41;15.00;69.50
10538;DHT22;5317;49.048;8.468;2023-04-24T06:35:08;15.10;68.90
10538;DHT22;5317;49.048;8.468;2023-04-24T06:37:37;15.00;68.50
10538;DHT22;5317;49.048;8.468;2023-04-24T06:40:04;15.20;68.70
10538;DHT22;5317;49.048;8.468;2023-04-24T06:42:32;15.20;68.60
10538;DHT22;5317;49.048;8.468;2023-04-24T06:44:58;15.30;68.60
10538;DHT22;5317;49.048;8.468;2023-04-24T06:47:25;15.40;67.80
10538;DHT22;5317;49.048;8.468;2023-04-24T06:49:54;15.30;67.70
10538;DHT22;5317;49.048;8.468;2023-04-24T06:52:21;15.20;67.60
10538;DHT22;5317;49.048;8.468;2023-04-24T06:54:47;15.30;67.90
10538;DHT22;5317;49.048;8.468;2023-04-24T06:57:14;15.30;66.80
10538;DHT22;5317;49.048;8.468;2023-04-24T06:59:42;15.20;66.90
10538;DHT22;5317;49.048;8.468;2023-04-24T07:02:09;15.30;67.20
10538;DHT22;5317;49.048;8.468;2023-04-24T07:04:36;15.40;66.40
10538;DHT22;5317;49.048;8.468;2023-04-24T07:07:04;15.40;66.20
10538;DHT22;5317;49.048;8.468;2023-04-24T07:09:32;15.50;66.70
10538;DHT22;5317;49.048;8.468;2023-04-24T07:12:00;15.50;66.00
10538;DHT22;5317;49.048;8.468;2023-04-24T07:14:27;15.60;65.40
10538;DHT22;5317;49.048;8.468;2023-04-24T07:16:54;15.60;65.20
10538;DHT22;5317;49.048;8.468;2023-04-24T07:19:22;15.60;65.00
10538;DHT22;5317;49.048;8.468;2023-04-24T07:21:49;15.40;64.30
10538;DHT22;5317;49.048;8.468;2023-04-24T07:24:17;15.30;64.20
10538;DHT22;5317;49.048;8.468;2023-04-24T07:26:44;15.20;64.10
10538;DHT22;5317;49.048;8.468;2023-04-24T07:29:12;15.10;64.80
10538;DHT22;5317;49.048;8.468;2023-04-24T07:31:39;15.10;64.90
10538;DHT22;5317;49.048;8.468;2023-04-24T07:34:07;15.10;64.10
10538;DHT22;5317;49.048;8.468;2023-04-24T07:36:34;15.20;64.10
10538;DHT22;5317;49.048;8.468;2023-04-24T07:39:00;15.20;64.10
10538;DHT22;5317;49.048;8.468;2023-04-24T07:41:29;15.10;64.10
10538;DHT22;5317;49.048;8.468;2023-04-24T07:43:56;15.20;63.70
10538;DHT22;5317;49.048;8.468;2023-04-24T07:46:23;15.30;64.20
10538;DHT22;5317;49.048;8.468;2023-04-24T07:48:50;15.40;64.10
10538;DHT22;5317;49.048;8.468;2023-04-24T07:51:17;15.40;63.70
10538;DHT22;5317;49.048;8.468;2023-04-24T07:53:44;15.30;63.10
10538;DHT22;5317;49.048;8.468;2023-04-24T07:56:10;15.20;61.80
10538;DHT22;5317;49.048;8.468;2023-04-24T07:58:39;15.20;61.90
10538;DHT22;5317;49.048;8.468;2023-04-24T08:01:06;15.10;60.50
10538;DHT22;5317;49.048;8.468;2023-04-24T08:03:33;15.00;59.80
10538;DHT22;5317;49.048;8.468;2023-04-24T08:06:00;14.70;59.70
10538;DHT22;5317;49.048;8.468;2023-04-24T08:08:27;14.60;61.20
10538;DHT22;5317;49.048;8.468;2023-04-24T08:10:54;14.60;61.90
10538;DHT22;5317;49.048;8.468;2023-04-24T08:13:21;14.60;63.50
10538;DHT22;5317;49.048;8.468;2023-04-24T08:15:50;14.70;64.30
10538;DHT22;5317;49.048;8.468;2023-04-24T08:18:17;14.70;62.90
10538;DHT22;5317;49.048;8.468;2023-04-24T08:20:43;14.60;62.70
10538;DHT22;5317;49.048;8.468;2023-04-24T08:23:11;14.50;63.30
10538;DHT22;5317;49.048;8.468;2023-04-24T08:25:37;14.60;62.90
10538;DHT22;5317;49.048;8.468;2023-04-24T08:28:06;14.70;62.80
10538;DHT22;5317;49.048;8.468;2023-04-24T08:30:33;14.70;61.90
10538;DHT22;5317;49.048;8.468;2023-04-24T08:33:01;14.70;62.10
10538;DHT22;5317;49.048;8.468;2023-04-24T08:35:28;14.80;62.40
10538;DHT22;5317;49.048;8.468;2023-04-24T08:37:55;14.90;62.30
10538;DHT22;5317;49.048;8.468;2023-04-24T08:40:26;14.90;61.40
10538;DHT22;5317;49.048;8.468;2023-04-24T08:42:54;14.80;61.60
10538;DHT22;5317;49.048;8.468;2023-04-24T08:45:23;14.70;61.20
10538;DHT22;5317;49.048;8.468;2023-04-24T08:47:50;14.80;61.70
10538;DHT22;5317;49.048;8.468;2023-04-24T08:50:20;14.90;61.10
10538;DHT22;5317;49.048;8.468;2023-04-24T08:52:49;15.10;60.70
10538;DHT22;5317;49.048;8.468;2023-04-24T08:55:18;15.20;60.50
10538;DHT22;5317;49.048;8.468;2023-04-24T08:57:49;15.30;61.30
10538;DHT22;5317;49.048;8.468;2023-04-24T09:00:17;15.50;61.20
10538;DHT22;5317;49.048;8.468;2023-04-24T09:02:45;15.40;60.20
10538;DHT22;5317;49.048;8.468;2023-04-24T09:05:14;15.60;60.40
10538;DHT22;5317;49.048;8.468;2023-04-24T09:07:45;15.60;60.80
10538;DHT22;5317;49.048;8.468;2023-04-24T09:10:15;15.70;60.40
10538;DHT22;5317;49.048;8.468;2023-04-24T09:12:42;15.80;59.60
10538;DHT22;5317;49.048;8.468;2023-04-24T09:15:11;15.80;59.80
10538;DHT22;5317;49.048;8.468;2023-04-24T09:17:38;15.80;59.80
10538;DHT22;5317;49.048;8.468;2023-04-24T09:20:06;15.70;59.60
10538;DHT22;5317;49.048;8.468;2023-04-24T09:22:33;15.70;60.00
10538;DHT22;5317;49.048;8.468;2023-04-24T09:25:03;15.70;59.60
10538;DHT22;5317;49.048;8.468;2023-04-24T09:27:32;15.60;59.70
10538;DHT22;5317;49.048;8.468;2023-04-24T09:29:59;15.40;58.70
10538;DHT22;5317;49.048;8.468;2023-04-24T09:32:27;15.30;58.70
10538;DHT22;5317;49.048;8.468;2023-04-24T09:35:06;15.20;59.00
10538;DHT22;5317;49.048;8.468;2023-04-24T09:37:35;15.00;58.40
10538;DHT22;5317;49.048;8.468;2023-04-24T09:40:23;15.00;58.80
10538;DHT22;5317;49.048;8.468;2023-04-24T09:42:52;15.10;58.20
10538;DHT22;5317;49.048;8.468;2023-04-24T09:45:20;15.00;58.30
10538;DHT22;5317;49.048;8.468;2023-04-24T09:47:51;14.90;57.50
10538;DHT22;5317;49.048;8.468;2023-04-24T09:50:18;14.90;57.90
10538;DHT22;5317;49.048;8.468;2023-04-24T09:52:46;14.90;57.90
10538;DHT22;5317;49.048;8.468;2023-04-24T09:55:23;14.90;57.70
10538;DHT22;5317;49.048;8.468;2023-04-24T09:57:52;14.90;57.60
10538;DHT22;5317;49.048;8.468;2023-04-24T10:00:23;15.00;57.60
10538;DHT22;5317;49.048;8.468;2023-04-24T10:02:54;15.10;57.10
10538;DHT22;5317;49.048;8.468;2023-04-24T10:05:27;15.30;57.70
10538;DHT22;5317;49.048;8.468;2023-04-24T10:08:01;15.60;57.70
10538;DHT22;5317;49.048;8.468;2023-04-24T10:10:29;15.70;56.30
10538;DHT22;5317;49.048;8.468;2023-04-24T10:12:57;15.70;56.60
10538;DHT22;5317;49.048;8.468;2023-04-24T10:15:24;15.70;56.60
10538;DHT22;5317;49.048;8.468;2023-04-24T10:17:53;15.70;56.20
10538;DHT22;5317;49.048;8.468;2023-04-24T10:20:21;15.70;56.90
10538;DHT22;5317;49.048;8.468;2023-04-24T10:22:49;15.70;56.50
10538;DHT22;5317;49.048;8.468;2023-04-24T10:25:18;15.70;56.80
10538;DHT22;5317;49.048;8.468;2023-04-24T10:27:49;15.60;56.60
10538;DHT22;5317;49.048;8.468;2023-04-24T10:30:16;15.50;57.20
10538;DHT22;5317;49.048;8.468;2023-04-24T10:32:43;15.50;57.40
10538;DHT22;5317;49.048;8.468;2023-04-24T10:35:12;15.50;57.40
10538;DHT22;5317;49.048;8.468;2023-04-24T10:37:42;15.40;57.50
10538;DHT22;5317;49.048;8.468;2023-04-24T10:40:10;15.30;57.30
10538;DHT22;5317;49.048;8.468;2023-04-24T10:42:40;15.20;57.50
10538;DHT22;5317;49.048;8.468;2023-04-24T10:45:17;15.10;57.70
10538;DHT22;5317;49.048;8.468;2023-04-24T10:48:02;15.10;57.90
10538;DHT22;5317;49.048;8.468;2023-04-24T10:50:41;15.20;58.30
10538;DHT22;5317;49.048;8.468;2023-04-24T10:53:13;15.30;58.30
10538;DHT22;5317;49.048;8.468;2023-04-24T10:55:42;15.50;58.30
10538;DHT22;5317;49.048;8.468;2023-04-24T10:58:10;15.50;57.60
10538;DHT22;5317;49.048;8.468;2023-04-24T11:00:39;15.50;57.20
10538;DHT22;5317;49.048;8.468;2023-04-24T11:03:09;15.60;57.90
10538;DHT22;5317;49.048;8.468;2023-04-24T11:05:56;15.60;58.00
10538;DHT22;5317;49.048;8.468;2023-04-24T11:08:25;15.70;57.70
10538;DHT22;5317;49.048;8.468;2023-04-24T11:10:57;15.80;58.20
10538;DHT22;5317;49.048;8.468;2023-04-24T11:13:25;15.80;57.40
10538;DHT22;5317;49.048;8.468;2023-04-24T11:16:27;15.80;57.90
10538;DHT22;5317;49.048;8.468;2023-04-24T11:19:23;15.80;60.40
10538;DHT22;5317;49.048;8.468;2023-04-24T11:21:55;15.90;61.80
10538;DHT22;5317;49.048;8.468;2023-04-24T11:24:38;15.90;60.30
10538;DHT22;5317;49.048;8.468;2023-04-24T11:27:07;15.80;60.30
10538;DHT22;5317;49.048;8.468;2023-04-24T11:29:44;15.70;60.20
10538;DHT22;5317;49.048;8.468;2023-04-24T11:32:18;15.70;60.00
10538;DHT22;5317;49.048;8.468;2023-04-24T11:34:47;15.50;59.80
10538;DHT22;5317;49.048;8.468;2023-04-24T11:37:14;15.50;61.40
10538;DHT22;5317;49.048;8.468;2023-04-24T11:39:41;15.60;60.50
10538;DHT22;5317;49.048;8.468;2023-04-24T11:42:09;15.70;60.40
10538;DHT22;5317;49.048;8.468;2023-04-24T11:44:36;16.00;60.20
10538;DHT22;5317;49.048;8.468;2023-04-24T11:47:04;16.10;59.70
10538;DHT22;5317;49.048;8.468;2023-04-24T11:49:32;16.10;59.10
10538;DHT22;5317;49.048;8.468;2023-04-24T11:52:00;16.00;59.20
10538;DHT22;5317;49.048;8.468;2023-04-24T11:54:27;15.80;59.00
10538;DHT22;5317;49.048;8.468;2023-04-24T11:56:55;15.70;59.20
10538;DHT22;5317;49.048;8.468;2023-04-24T11:59:22;15.70;59.20
10538;DHT22;5317;49.048;8.468;2023-04-24T12:01:49;15.70;58.50
10538;DHT22;5317;49.048;8.468;2023-04-24T12:04:17;15.80;58.80
10538;DHT22;5317;49.048;8.468;2023-04-24T12:07:01;15.90;58.90
10538;DHT22;5317;49.048;8.468;2023-04-24T12:09:28;16.20;58.40
10538;DHT22;5317;49.048;8.468;2023-04-24T12:11:55;16.40;58.50
10538;DHT22;5317;49.048;8.468;2023-04-24T12:14:22;16.60;58.10
10538;DHT22;5317;49.048;8.468;2023-04-24T12:16:50;16.70;57.20
10538;DHT22;5317;49.048;8.468;2023-04-24T12:19:20;16.70;57.50
10538;DHT22;5317;49.048;8.468;2023-04-24T12:22:01;16.90;58.10
10538;DHT22;5317;49.048;8.468;2023-04-24T12:24:28;17.00;58.20
10538;DHT22;5317;49.048;8.468;2023-04-24T12:26:56;17.00;56.90
10538;DHT22;5317;49.048;8.468;2023-04-24T12:29:23;16.90;57.70
10538;DHT22;5317;49.048;8.468;2023-04-24T12:31:51;17.00;57.70
10538;DHT22;5317;49.048;8.468;2023-04-24T12:34:19;16.80;57.90
10538;DHT22;5317;49.048;8.468;2023-04-24T12:36:46;16.90;57.60
10538;DHT22;5317;49.048;8.468;2023-04-24T12:39:17;16.80;56.20
10538;DHT22;5317;49.048;8.468;2023-04-24T12:41:55;16.80;56.30
10538;DHT22;5317;49.048;8.468;2023-04-24T12:44:29;16.80;55.80
10538;DHT22;5317;49.048;8.468;2023-04-24T12:46:57;16.80;55.90
10538;DHT22;5317;49.048;8.468;2023-04-24T12:49:24;17.00;57.00
10538;DHT22;5317;49.048;8.468;2023-04-24T12:51:51;17.10;55.80
10538;DHT22;5317;49.048;8.468;2023-04-24T12:54:19;17.00;55.30
10538;DHT22;5317;49.048;8.468;2023-04-24T12:56:46;17.00;55.50
10538;DHT22;5317;49.048;8.468;2023-04-24T12:59:14;17.00;55.60
10538;DHT22;5317;49.048;8.468;2023-04-24T13:01:41;17.00;55.20
10538;DHT22;5317;49.048;8.468;2023-04-24T13:04:08;17.20;55.00
10538;DHT22;5317;49.048;8.468;2023-04-24T13:06:35;17.20;54.90
10538;DHT22;5317;49.048;8.468;2023-04-24T13:09:02;17.20;54.80
10538;DHT22;5317;49.048;8.468;2023-04-24T13:11:31;17.40;55.10
10538;DHT22;5317;49.048;8.468;2023-04-24T13:13:58;17.20;53.20
10538;DHT22;5317;49.048;8.468;2023-04-24T13:16:24;17.00;54.20
10538;DHT22;5317;49.048;8.468;2023-04-24T13:18:51;17.00;54.10
10538;DHT22;5317;49.048;8.468;2023-04-24T13:21:18;17.10;54.00
10538;DHT22;5317;49.048;8.468;2023-04-24T13:23:45;17.10;53.90
10538;DHT22;5317;49.048;8.468;2023-04-24T13:26:12;17.00;54.20
10538;DHT22;5317;49.048;8.468;2023-04-24T13:28:40;17.10;53.30
10538;DHT22;5317;49.048;8.468;2023-04-24T13:31:07;17.20;53.40
10538;DHT22;5317;49.048;8.468;2023-04-24T13:33:34;17.20;53.50
10538;DHT22;5317;49.048;8.468;2023-04-24T13:36:01;17.20;52.90
10538;DHT22;5317;49.048;8.468;2023-04-24T13:38:28;17.10;53.70
10538;DHT22;5317;49.048;8.468;2023-04-24T13:40:55;17.00;53.50
10538;DHT22;5317;49.048;8.468;2023-04-24T13:43:21;17.00;53.50
10538;DHT22;5317;49.048;8.468;2023-04-24T13:45:50;17.10;54.20
10538;DHT22;5317;49.048;8.468;2023-04-24T13:48:17;17.10;53.70
10538;DHT22;5317;49.048;8.468;2023-04-24T13:50:43;17.10;53.90
10538;DHT22;5317;49.048;8.468;2023-04-24T13:53:13;17.00;53.20
10538;DHT22;5317;49.048;8.468;2023-04-24T13:55:40;17.10;54.00
10538;DHT22;5317;49.048;8.468;2023-04-24T13:58:07;17.10;53.50
10538;DHT22;5317;49.048;8.468;2023-04-24T14:00:34;17.00;53.00
10538;DHT22;5317;49.048;8.468;2023-04-24T14:03:02;17.00;53.50
10538;DHT22;5317;49.048;8.468;2023-04-24T14:05:29;17.00;53.00
10538;DHT22;5317;49.048;8.468;2023-04-24T14:07:56;17.00;52.80
10538;DHT22;5317;49.048;8.468;2023-04-24T14:10:23;17.00;52.60
10538;DHT22;5317;49.048;8.468;2023-04-24T14:12:51;17.00;52.70
10538;DHT22;5317;49.048;8.468;2023-04-24T14:15:18;17.10;53.10
10538;DHT22;5317;49.048;8.468;2023-04-24T14:17:45;17.40;53.10
10538;DHT22;5317;49.048;8.468;2023-04-24T14:20:13;17.50;52.80
10538;DHT22;5317;49.048;8.468;2023-04-24T14:22:40;17.40;53.90
10538;DHT22;5317;49.048;8.468;2023-04-24T14:25:08;17.40;54.20
10538;DHT22;5317;49.048;8.468;2023-04-24T14:27:35;17.50;54.10
10538;DHT22;5317;49.048;8.468;2023-04-24T14:30:02;17.70;55.30
10538;DHT22;5317;49.048;8.468;2023-04-24T14:32:29;17.70;54.60
10538;DHT22;5317;49.048;8.468;2023-04-24T14:34:56;17.70;55.10
10538;DHT22;5317;49.048;8.468;2023-04-24T14:37:25;17.80;55.40
10538;DHT22;5317;49.048;8.468;2023-04-24T14:39:51;17.90;55.30
10538;DHT22;5317;49.048;8.468;2023-04-24T14:42:18;18.00;55.10
10538;DHT22;5317;49.048;8.468;2023-04-24T14:44:45;18.10;55.20
10538;DHT22;5317;49.048;8.468;2023-04-24T14:47:12;18.30;54.70
10538;DHT22;5317;49.048;8.468;2023-04-24T14:49:39;18.40;54.30
10538;DHT22;5317;49.048;8.468;2023-04-24T14:52:05;18.30;54.10
10538;DHT22;5317;49.048;8.468;2023-04-24T14:54:34;18.20;54.10
10538;DHT22;5317;49.048;8.468;2023-04-24T14:57:01;18.40;54.50
10538;DHT22;5317;49.048;8.468;2023-04-24T14:59:28;18.40;54.60
10538;DHT22;5317;49.048;8.468;2023-04-24T15:01:56;18.50;54.30
10538;DHT22;5317;49.048;8.468;2023-04-24T15:04:23;18.40;53.60
10538;DHT22;5317;49.048;8.468;2023-04-24T15:06:54;18.30;54.30
10538;DHT22;5317;49.048;8.468;2023-04-24T15:09:21;18.40;54.30
10538;DHT22;5317;49.048;8.468;2023-04-24T15:11:49;18.30;53.50
10538;DHT22;5317;49.048;8.468;2023-04-24T15:14:17;18.20;53.30
10538;DHT22;5317;49.048;8.468;2023-04-24T15:16:44;18.20;53.70
10538;DHT22;5317;49.048;8.468;2023-04-24T15:19:11;18.00;53.50
10538;DHT22;5317;49.048;8.468;2023-04-24T15:21:38;17.90;53.70
10538;DHT22;5317;49.048;8.468;2023-04-24T15:24:09;17.70;53.90
10538;DHT22;5317;49.048;8.468;2023-04-24T15:26:36;17.60;54.00
10538;DHT22;5317;49.048;8.468;2023-04-24T15:29:04;17.40;54.00
10538;DHT22;5317;49.048;8.468;2023-04-24T15:31:31;17.20;54.50
10538;DHT22;5317;49.048;8.468;2023-04-24T15:33:58;17.10;54.40
10538;DHT22;5317;49.048;8.468;2023-04-24T15:36:25;17.00;54.90
10538;DHT22;5317;49.048;8.468;2023-04-24T15:38:52;16.80;54.80
10538;DHT22;5317;49.048;8.468;2023-04-24T15:41:19;16.80;55.10
10538;DHT22;5317;49.048;8.468;2023-04-24T15:43:49;16.80;55.20
10538;DHT22;5317;49.048;8.468;2023-04-24T15:46:23;16.70;55.40
10538;DHT22;5317;49.048;8.468;2023-04-24T15:48:50;16.70;55.60
10538;DHT22;5317;49.048;8.468;2023-04-24T15:51:23;16.70;55.70